Time;durP1;ratioP1;P1;durP2;ratioP2;P2;SDS_P1;SDS_P2;PMS_P1;PMS_P2;Temp;Humidity;BMP_temperature;BMP_pressure;BME280_temperature;BME280_humidity;BME280_pressure;Samples;Min_cycle;Max_cycle;Signal;HPM_P1;HPM_P2
2023/03/02 00:02:00;;;;;;;7.30;3.30;;;;;;;-1.70;85.33;96056.84;106616;1276;22520;-74
2023/03/02 00:04:44;;;;;;;7.40;3.10;;;;;;;-1.68;85.92;96057.63;106643;1276;22521;-73
2023/03/02 00:07:18;;;;;;;7.80;3.60;;;;;;;-1.64;86.50;96059.87;106635;1276;22806;-74
2023/03/02 00:09:47;;;;;;;9.30;4.30;;;;;;;-1.60;86.67;96054.98;106648;1276;24249;-74
2023/03/02 00:12:15;;;;;;;11.50;3.90;;;;;;;-1.55;86.00;96056.56;106588;1276;24411;-74
2023/03/02 00:14:43;;;;;;;7.60;3.60;;;;;;;-1.55;85.97;96055.50;106610;1274;25384;-74
2023/03/02 00:17:12;;;;;;;8.20;4.10;;;;;;;-1.56;86.04;96053.77;106654;1276;23293;-74
2023/03/02 00:19:40;;;;;;;7.50;4.00;;;;;;;-1.61;85.44;96048.59;106572;1276;24037;-74
2023/03/02 00:22:09;;;;;;;11.90;5.50;;;;;;;-1.69;85.32;96051.92;106560;1276;25979;-73
2023/03/02 00:24:38;;;;;;;11.20;6.10;;;;;;;-1.76;86.22;96056.13;106663;1276;25271;-74
2023/03/02 00:27:06;;;;;;;13.20;5.70;;;;;;;-1.81;86.29;96053.04;106508;1276;22868;-74
2023/03/02 00:29:34;;;;;;;5.20;3.00;;;;;;;-1.90;85.89;96051.31;106500;1267;22650;-74
2023/03/02 00:32:02;;;;;;;5.00;3.30;;;;;;;-1.91;86.17;96047.31;106594;1276;22511;-73
2023/03/02 00:34:31;;;;;;;5.20;2.90;;;;;;;-1.90;86.37;96045.95;106684;1276;22527;-74
2023/03/02 00:36:59;;;;;;;8.90;3.30;;;;;;;-1.94;85.98;96042.73;106644;1276;25341;-73
2023/03/02 00:39:27;;;;;;;4.30;2.40;;;;;;;-1.95;86.19;96050.11;106565;1276;22609;-74
2023/03/02 00:41:55;;;;;;;3.70;2.20;;;;;;;-2.02;86.05;96047.27;106537;1276;24266;-74
2023/03/02 00:44:24;;;;;;;12.00;5.50;;;;;;;-2.08;85.67;96042.73;106560;1276;22648;-74
2023/03/02 00:46:52;;;;;;;4.90;3.30;;;;;;;-2.13;85.52;96045.67;106553;1276;22522;-73
2023/03/02 00:49:21;;;;;;;43.50;21.80;;;;;;;-2.14;86.02;96043.20;106576;1276;22547;-73
2023/03/02 00:51:50;;;;;;;5.80;3.90;;;;;;;-2.18;85.82;96041.69;106631;1276;25348;-74
2023/03/02 00:54:18;;;;;;;10.30;3.60;;;;;;;-2.16;86.20;96037.27;106606;1276;22514;-74
2023/03/02 00:56:46;;;;;;;13.40;6.40;;;;;;;-2.22;85.89;96032.06;106492;1276;25309;-74
2023/03/02 00:59:29;;;;;;;20.30;10.00;;;;;;;-2.27;85.94;96033.59;106569;1260;22593;-73
2023/03/02 01:02:13;;;;;;;14.60;7.20;;;;;;;-2.36;86.05;96026.52;106638;1261;22536;-74
2023/03/02 01:04:43;;;;;;;12.00;7.00;;;;;;;-2.43;86.54;96024.88;106601;1276;24490;-73
2023/03/02 01:07:15;;;;;;;7.30;4.40;;;;;;;-2.47;86.76;96022.66;106615;1276;24258;-73
2023/03/02 01:09:44;;;;;;;9.90;4.40;;;;;;;-2.52;86.68;96013.34;106620;1270;22535;-74
2023/03/02 01:12:13;;;;;;;11.50;6.20;;;;;;;-2.57;86.96;96011.45;106641;1276;23344;-73
2023/03/02 01:14:45;;;;;;;14.10;6.40;;;;;;;-2.61;87.24;96010.77;106615;1276;22563;-73
2023/03/02 01:17:14;;;;;;;8.20;4.90;;;;;;;-2.70;87.22;96007.84;106623;1276;22514;-74
2023/03/02 01:19:42;;;;;;;6.80;4.40;;;;;;;-2.73;87.63;96005.65;106556;1276;22511;-73
2023/03/02 01:22:11;;;;;;;5.90;3.10;;;;;;;-2.73;88.14;96007.19;106573;1276;26535;-73
2023/03/02 01:24:39;;;;;;;4.40;2.40;;;;;;;-2.72;88.47;96007.05;106616;1276;25396;-73
2023/03/02 01:27:07;;;;;;;5.20;2.30;;;;;;;-2.75;88.01;96001.98;106599;1276;22525;-73
2023/03/02 01:29:36;;;;;;;6.00;3.10;;;;;;;-2.77;87.86;96007.05;106559;1276;22615;-71
2023/03/02 01:32:04;;;;;;;7.10;3.80;;;;;;;-2.75;88.07;96005.90;106598;1276;22746;-71
2023/03/02 01:34:34;;;;;;;9.40;3.60;;;;;;;-2.73;87.59;96007.54;106696;1276;25318;-72
2023/03/02 01:37:02;;;;;;;6.60;3.40;;;;;;;-2.69;87.86;95998.75;106604;1261;25332;-72
2023/03/02 01:39:30;;;;;;;10.60;3.60;;;;;;;-2.69;87.54;95992.74;106629;1263;22592;-73
2023/03/02 01:41:58;;;;;;;7.30;3.20;;;;;;;-2.68;87.38;95990.38;106603;1276;25392;-72
2023/03/02 01:44:36;;;;;;;8.20;3.00;;;;;;;-2.64;87.80;95987.73;106562;1276;22619;-72
2023/03/02 01:47:33;;;;;;;6.80;3.20;;;;;;;-2.54;88.04;95983.28;106584;1276;22518;-72
2023/03/02 01:50:25;;;;;;;6.90;3.30;;;;;;;-2.44;88.08;95991.09;106616;1276;25188;-72
2023/03/02 01:52:56;;;;;;;8.80;4.40;;;;;;;-2.42;87.58;95989.11;106578;1275;22521;-72
2023/03/02 01:55:30;;;;;;;10.40;4.70;;;;;;;-2.40;87.20;95990.71;106608;1276;24339;-72
2023/03/02 01:58:01;;;;;;;9.40;2.90;;;;;;;-2.43;86.62;95984.40;106622;1276;22526;-73
2023/03/02 02:00:35;;;;;;;8.00;3.30;;;;;;;-2.37;87.25;95983.59;106459;1276;24371;-72
2023/03/02 02:03:15;;;;;;;28.60;9.90;;;;;;;-2.31;87.10;95982.95;106673;1276;25277;-72
2023/03/02 02:05:48;;;;;;;13.60;6.60;;;;;;;-2.37;85.73;95981.00;106573;1276;22526;-73
2023/03/02 02:08:17;;;;;;;29.30;11.90;;;;;;;-2.40;85.68;95986.40;106625;1276;25455;-73
2023/03/02 02:10:45;;;;;;;29.70;11.10;;;;;;;-2.45;85.99;95986.92;106621;1276;22749;-72
2023/03/02 02:13:13;;;;;;;19.80;8.70;;;;;;;-2.52;85.40;95985.25;106309;1276;25370;-73
2023/03/02 02:15:42;;;;;;;7.60;4.40;;;;;;;-2.61;85.69;95984.79;106622;1276;23853;-73
2023/03/02 02:18:10;;;;;;;6.20;3.20;;;;;;;-2.62;86.50;95982.68;106632;1276;22581;-72
2023/03/02 02:20:44;;;;;;;13.00;5.40;;;;;;;-2.64;86.27;95988.11;106688;1276;24403;-73
2023/03/02 02:23:38;;;;;;;32.90;13.00;;;;;;;-2.77;85.70;95991.73;106672;1276;22510;-72
2023/03/02 02:26:12;;;;;;;33.10;13.70;;;;;;;-2.91;86.50;95993.59;106593;1276;22637;-72
2023/03/02 02:28:48;;;;;;;23.10;11.10;;;;;;;-2.93;86.48;95995.25;106644;1276;24212;-72
2023/03/02 02:31:25;;;;;;;36.40;15.20;;;;;;;-3.02;85.78;95997.61;106597;1276;22637;-73
2023/03/02 02:34:13;;;;;;;29.70;9.20;;;;;;;-3.12;85.99;95993.29;106623;1276;24180;-72
2023/03/02 02:36:47;;;;;;;14.00;5.70;;;;;;;-3.13;86.96;95990.48;106631;1276;26719;-73
2023/03/02 02:39:22;;;;;;;30.20;18.90;;;;;;;-3.13;86.75;95993.60;106600;1276;22531;-72
2023/03/02 02:41:54;;;;;;;27.90;16.30;;;;;;;-3.14;86.85;95993.36;106617;1276;24204;-72
2023/03/02 02:44:23;;;;;;;6.30;3.40;;;;;;;-3.16;87.41;95993.98;106637;1276;25453;-72
2023/03/02 02:46:51;;;;;;;13.00;4.40;;;;;;;-3.10;87.14;95988.55;106575;1276;22526;-72
2023/03/02 02:49:28;;;;;;;13.30;7.10;;;;;;;-3.08;87.13;95984.50;106611;1276;25455;-72
2023/03/02 02:51:58;;;;;;;23.60;11.00;;;;;;;-3.07;86.98;95986.77;106589;1276;24244;-73
2023/03/02 02:54:28;;;;;;;17.30;8.30;;;;;;;-3.10;86.51;95977.36;106627;1276;25334;-72
2023/03/02 02:57:00;;;;;;;5.70;3.40;;;;;;;-3.13;86.75;95981.88;106620;1276;25333;-73
2023/03/02 02:59:34;;;;;;;8.00;3.20;;;;;;;-3.11;87.16;95982.49;106530;1276;22514;-72
2023/03/02 03:02:02;;;;;;;12.30;4.30;;;;;;;-3.07;87.37;95984.02;106651;1276;22514;-73
2023/03/02 03:04:31;;;;;;;6.90;4.20;;;;;;;-2.95;87.90;95982.25;106628;1276;25211;-72
2023/03/02 03:07:03;;;;;;;11.00;3.60;;;;;;;-2.87;87.71;95983.42;106601;1276;22537;-73
2023/03/02 03:09:31;;;;;;;7.10;3.10;;;;;;;-2.85;87.14;95985.04;106522;1276;22633;-72
2023/03/02 03:12:13;;;;;;;13.30;6.80;;;;;;;-2.90;86.74;95983.98;106667;1276;24377;-72
2023/03/02 03:14:42;;;;;;;18.40;9.70;;;;;;;-2.94;86.36;95986.23;106654;1276;22536;-72
2023/03/02 03:17:11;;;;;;;23.90;10.40;;;;;;;-2.96;85.53;95989.40;106680;1276;25231;-72
2023/03/02 03:20:09;;;;;;;25.20;10.40;;;;;;;-3.08;84.80;95993.77;106614;1276;24228;-72
2023/03/02 03:22:42;;;;;;;10.00;4.00;;;;;;;-3.20;85.13;95990.55;106590;1276;22531;-72
2023/03/02 03:25:14;;;;;;;9.70;3.20;;;;;;;-3.21;86.64;95991.37;106689;1275;25239;-73
2023/03/02 03:27:45;;;;;;;8.10;2.80;;;;;;;-3.09;87.18;95990.13;106604;1276;24330;-73
2023/03/02 03:30:14;;;;;;;6.00;2.50;;;;;;;-2.99;86.97;95986.23;106650;1276;25455;-73
2023/03/02 03:32:43;;;;;;;7.40;2.90;;;;;;;-2.89;87.30;95983.33;106663;1276;22647;-73
2023/03/02 03:35:13;;;;;;;8.80;2.50;;;;;;;-2.84;87.01;95984.58;106618;1276;23137;-72
2023/03/02 03:37:42;;;;;;;5.40;2.40;;;;;;;-2.82;86.53;95981.39;106584;1276;23884;-73
2023/03/02 03:40:10;;;;;;;10.10;4.90;;;;;;;-2.75;86.66;95981.64;106605;1276;25326;-73
2023/03/02 03:42:41;;;;;;;15.70;6.80;;;;;;;-2.74;86.85;95978.07;106684;1276;25445;-73
2023/03/02 03:45:09;;;;;;;16.60;7.30;;;;;;;-2.73;86.67;95982.42;106562;1276;22643;-72
2023/03/02 03:47:38;;;;;;;11.10;5.00;;;;;;;-2.70;87.25;95978.91;106692;1276;24254;-73
2023/03/02 03:50:08;;;;;;;8.10;4.60;;;;;;;-2.67;87.31;95981.77;106653;1276;24244;-72
2023/03/02 03:52:37;;;;;;;9.00;4.30;;;;;;;-2.66;87.15;95982.69;106619;1276;25312;-73
2023/03/02 03:55:27;;;;;;;13.20;6.30;;;;;;;-2.66;86.90;95982.16;106561;1276;22589;-73
2023/03/02 03:57:56;;;;;;;11.40;5.70;;;;;;;-2.67;86.76;95984.71;106571;1276;22650;-72
2023/03/02 04:00:25;;;;;;;19.40;9.50;;;;;;;-2.68;86.78;95983.63;106583;1272;24334;-73
2023/03/02 04:02:56;;;;;;;32.60;16.80;;;;;;;-2.70;86.65;95980.45;106595;1276;22637;-73
2023/03/02 04:05:26;;;;;;;24.40;12.60;;;;;;;-2.71;86.92;95977.50;106666;1276;24715;-73
2023/03/02 04:08:00;;;;;;;20.30;12.00;;;;;;;-2.72;86.68;95979.52;106583;1276;22527;-73
2023/03/02 04:10:29;;;;;;;25.80;12.70;;;;;;;-2.71;87.01;95979.38;106501;1276;22528;-73
2023/03/02 04:12:58;;;;;;;23.00;10.40;;;;;;;-2.64;87.55;95979.81;106589;1276;24241;-72
2023/03/02 04:15:27;;;;;;;18.80;9.30;;;;;;;-2.56;87.60;95979.78;106591;1276;22533;-72
2023/03/02 04:17:56;;;;;;;9.50;4.60;;;;;;;-2.45;87.82;95978.12;106618;1276;22522;-72
2023/03/02 04:20:27;;;;;;;13.70;7.70;;;;;;;-2.34;88.23;95972.52;106663;1276;24380;-72
2023/03/02 04:22:56;;;;;;;18.60;9.70;;;;;;;-2.24;88.40;95974.23;106628;1276;24225;-71
2023/03/02 04:25:27;;;;;;;18.20;8.10;;;;;;;-2.12;88.35;95976.05;106676;1276;24330;-70
2023/03/02 04:28:18;;;;;;;26.10;13.10;;;;;;;-2.03;87.95;95967.23;106603;1276;22539;-71
2023/03/02 04:30:46;;;;;;;21.60;12.50;;;;;;;-1.95;87.46;95967.53;106593;1276;23348;-70
2023/03/02 04:33:14;;;;;;;23.60;12.00;;;;;;;-1.90;87.09;95968.23;106567;1276;24260;-72
2023/03/02 04:35:43;;;;;;;20.00;9.80;;;;;;;-1.79;87.14;95966.18;106679;1276;22646;-72
2023/03/02 04:38:11;;;;;;;14.70;8.70;;;;;;;-1.67;87.48;95960.05;106570;1276;25229;-71
2023/03/02 04:40:39;;;;;;;50.90;25.90;;;;;;;-1.58;87.18;95958.65;106570;1276;25379;-72
2023/03/02 04:43:08;;;;;;;52.80;23.60;;;;;;;-1.48;86.82;95956.73;106637;1276;25392;-72
2023/03/02 04:45:36;;;;;;;59.10;27.20;;;;;;;-1.40;86.16;95955.44;106625;1276;22507;-72
2023/03/02 04:48:05;;;;;;;49.00;24.30;;;;;;;-1.35;85.65;95953.54;106635;1276;24349;-72
2023/03/02 04:50:33;;;;;;;54.70;24.00;;;;;;;-1.28;85.87;95952.20;106652;1276;24057;-72
2023/03/02 04:53:01;;;;;;;34.50;16.80;;;;;;;-1.17;85.97;95949.96;106547;1276;25469;-73
2023/03/02 04:55:30;;;;;;;46.30;25.70;;;;;;;-1.18;85.03;95951.33;106629;1276;22632;-72
2023/03/02 04:57:58;;;;;;;50.60;23.20;;;;;;;-1.30;84.92;95951.80;106625;1276;25395;-72
2023/03/02 05:00:27;;;;;;;47.30;27.80;;;;;;;-1.37;84.63;95956.73;106596;1276;22640;-69
2023/03/02 05:02:57;;;;;;;102.20;47.90;;;;;;;-1.45;85.03;95955.80;106608;1276;25344;-72
2023/03/02 05:05:26;;;;;;;103.50;49.90;;;;;;;-1.47;85.35;95954.84;106632;1276;24256;-71
2023/03/02 05:07:57;;;;;;;85.80;41.60;;;;;;;-1.48;85.33;95960.33;106635;1261;22519;-73
2023/03/02 05:10:26;;;;;;;60.90;32.40;;;;;;;-1.53;85.50;95957.95;106612;1276;22556;-72
2023/03/02 05:13:03;;;;;;;128.60;60.20;;;;;;;-1.49;85.83;95957.54;106591;1276;22643;-73
2023/03/02 05:15:37;;;;;;;164.90;72.00;;;;;;;-1.48;86.00;95959.10;106596;1276;22521;-68
2023/03/02 05:18:07;;;;;;;;;;;;;;;-1.48;85.99;95959.98;106640;1269;25246;-73
2023/03/02 05:20:35;;;;;;;140.90;71.50;;;;;;;-1.47;86.62;95957.08;106565;1276;24249;-73
2023/03/02 05:23:07;;;;;;;134.90;69.90;;;;;;;-1.45;86.73;95957.66;106584;1276;24233;-73
2023/03/02 05:25:37;;;;;;;89.00;48.50;;;;;;;-1.44;86.58;95955.48;106630;1254;22532;-73
2023/03/02 05:28:05;;;;;;;87.10;48.60;;;;;;;-1.41;87.30;95956.06;106605;1269;24459;-73
2023/03/02 05:30:36;;;;;;;86.90;45.40;;;;;;;-1.39;86.94;95960.63;106612;1276;25178;-73
2023/03/02 05:33:04;;;;;;;99.10;44.50;;;;;;;-1.38;86.84;95955.86;106585;1276;22646;-73
2023/03/02 05:35:33;;;;;;;42.90;21.40;;;;;;;-1.37;87.03;95956.91;106583;1276;24250;-73
2023/03/02 05:38:01;;;;;;;34.80;18.20;;;;;;;-1.32;87.50;95957.58;106581;1276;24293;-73
2023/03/02 05:40:30;;;;;;;61.80;28.00;;;;;;;-1.28;87.90;95960.48;106591;1276;24192;-73
2023/03/02 05:42:59;;;;;;;60.20;29.70;;;;;;;-1.25;87.51;95963.00;106640;1276;24248;-73
2023/03/02 05:45:33;;;;;;;60.90;31.90;;;;;;;-1.21;87.49;95960.02;106610;1276;22589;-73
2023/03/02 05:48:03;;;;;;;53.10;25.00;;;;;;;-1.15;87.52;95964.88;106559;1276;22524;-73
2023/03/02 05:50:32;;;;;;;29.90;16.60;;;;;;;-1.04;87.61;95968.31;106633;1276;22530;-73
2023/03/02 05:53:01;;;;;;;14.30;7.30;;;;;;;-0.92;87.55;95967.50;106545;1276;24231;-73
2023/03/02 05:55:30;;;;;;;11.30;6.80;;;;;;;-0.78;87.58;95968.27;106521;1276;22603;-70
2023/03/02 05:57:58;;;;;;;98.80;39.30;;;;;;;-0.66;87.95;95975.40;106649;1276;24500;-69
2023/03/02 06:00:26;;;;;;;62.40;31.50;;;;;;;-0.59;87.51;95975.23;106466;1276;25397;-68
2023/03/02 06:02:55;;;;;;;45.50;23.50;;;;;;;-0.60;86.75;95975.58;106627;1276;22524;-66
2023/03/02 06:05:23;;;;;;;49.60;24.20;;;;;;;-0.60;86.59;95980.59;106554;1276;22517;-69
2023/03/02 06:07:51;;;;;;;42.30;21.00;;;;;;;-0.56;86.66;95979.31;106469;1276;25332;-72
2023/03/02 06:10:20;;;;;;;36.80;19.20;;;;;;;-0.45;86.93;95981.90;106524;1276;24356;-65
2023/03/02 06:12:48;;;;;;;42.30;25.30;;;;;;;-0.31;86.88;95978.33;106576;1276;22546;-68
2023/03/02 06:15:16;;;;;;;41.90;23.40;;;;;;;-0.17;86.67;95982.19;106514;1276;22524;-67
2023/03/02 06:17:45;;;;;;;47.00;28.80;;;;;;;-0.07;86.47;95982.67;108539;1276;22523;-70
2023/03/02 06:20:14;;;;;;;65.40;36.40;;;;;;;0.01;86.15;95983.91;106598;1276;25496;-69
2023/03/02 06:22:44;;;;;;;54.90;33.00;;;;;;;0.16;86.64;95985.36;106534;1276;25457;-67
2023/03/02 06:25:19;;;;;;;52.40;31.30;;;;;;;0.36;86.44;95979.69;106512;1276;24033;-73
2023/03/02 06:27:52;;;;;;;52.50;29.80;;;;;;;0.47;85.90;95976.34;106562;1276;24171;-73
2023/03/02 06:30:24;;;;;;;43.40;25.70;;;;;;;0.66;86.40;95980.65;106523;1276;22523;-67
2023/03/02 06:32:52;;;;;;;42.30;23.10;;;;;;;0.85;85.67;95977.30;106442;1276;22520;-70
2023/03/02 06:35:22;;;;;;;45.00;25.30;;;;;;;0.94;84.74;95975.10;106452;1276;24225;-73
2023/03/02 06:37:51;;;;;;;47.70;25.80;;;;;;;0.98;84.54;95976.09;106609;1276;25218;-72
2023/03/02 06:40:20;;;;;;;54.10;30.80;;;;;;;1.08;84.64;95973.36;106586;1276;25227;-71
2023/03/02 06:42:48;;;;;;;128.00;53.90;;;;;;;1.16;84.44;95973.39;106728;1276;25236;-73
2023/03/02 06:45:17;;;;;;;71.50;36.50;;;;;;;1.27;84.34;95973.80;106975;1264;22794;-73
2023/03/02 06:47:45;;;;;;;62.90;33.70;;;;;;;1.36;84.34;95976.61;106694;1276;22644;-69
2023/03/02 06:50:13;;;;;;;75.20;41.20;;;;;;;1.55;83.74;95973.41;106737;1276;22524;-70
2023/03/02 06:52:41;;;;;;;56.60;32.90;;;;;;;1.63;82.79;95969.77;106953;1276;24386;-71
2023/03/02 06:55:10;;;;;;;50.40;29.10;;;;;;;1.80;83.47;95973.60;106659;1272;22650;-72
2023/03/02 06:57:38;;;;;;;42.00;24.50;;;;;;;2.04;83.28;95968.02;106733;1270;22552;-70
2023/03/02 07:00:14;;;;;;;30.60;17.60;;;;;;;2.14;82.53;95962.50;106647;1270;22583;-72
2023/03/02 07:02:45;;;;;;;28.80;17.30;;;;;;;2.15;81.86;95960.44;106728;1272;22533;-71
2023/03/02 07:05:14;;;;;;;27.20;16.10;;;;;;;2.05;81.49;95964.40;106419;1269;24200;-72
2023/03/02 07:07:42;;;;;;;30.40;16.10;;;;;;;2.04;81.96;95964.37;106552;1268;25383;-69
2023/03/02 07:10:12;;;;;;;19.80;13.30;;;;;;;2.06;82.29;95966.00;106981;1270;22509;-71
2023/03/02 07:12:41;;;;;;;14.00;9.60;;;;;;;2.11;82.41;95953.94;106567;1270;24064;-69
2023/03/02 07:15:11;;;;;;;12.90;7.20;;;;;;;2.20;82.28;95944.73;106715;1263;22696;-72
2023/03/02 07:17:41;;;;;;;14.80;7.70;;;;;;;2.32;81.69;95941.85;106802;1271;22755;-69
2023/03/02 07:20:13;;;;;;;10.80;5.90;;;;;;;2.38;81.27;95942.66;109845;1270;22521;-77
2023/03/02 07:22:41;;;;;;;8.10;5.00;;;;;;;2.43;80.83;95939.45;109926;1270;22644;-73
2023/03/02 07:25:10;;;;;;;9.60;3.80;;;;;;;2.45;80.66;95942.79;106526;1275;22640;-75
2023/03/02 07:27:39;;;;;;;8.00;4.40;;;;;;;2.54;80.27;95939.83;106464;1272;24347;-70
2023/03/02 07:30:09;;;;;;;7.30;4.70;;;;;;;2.70;80.86;95940.98;106679;1265;22511;-71
2023/03/02 07:32:37;;;;;;;14.20;6.50;;;;;;;2.89;80.74;95937.28;106461;1268;23920;-74
2023/03/02 07:35:06;;;;;;;12.10;6.40;;;;;;;3.08;80.53;95933.77;108896;1257;22617;-70
2023/03/02 07:37:34;;;;;;;13.00;8.00;;;;;;;3.25;79.29;95935.08;109897;1275;22563;-74
2023/03/02 07:40:05;;;;;;;14.70;7.60;;;;;;;3.41;79.23;95934.08;106540;1275;22655;-73
2023/03/02 07:42:33;;;;;;;14.40;6.60;;;;;;;3.53;78.27;95933.39;106058;1254;727678;-71
2023/03/02 07:45:03;;;;;;;14.90;6.70;;;;;;;3.65;77.65;95932.51;106520;1275;25213;-71
2023/03/02 07:47:32;;;;;;;11.90;6.20;;;;;;;3.82;77.90;95929.77;106495;1275;22553;-70
2023/03/02 07:50:00;;;;;;;24.90;13.10;;;;;;;3.99;77.77;95926.69;107904;1275;24265;-77
2023/03/02 07:52:29;;;;;;;12.90;7.70;;;;;;;4.18;77.38;95922.37;106732;1275;24202;-74
2023/03/02 07:54:58;;;;;;;19.30;8.50;;;;;;;4.43;77.37;95921.96;108480;1275;22517;-72
2023/03/02 07:57:26;;;;;;;16.30;10.20;;;;;;;4.64;76.35;95923.91;106662;1275;22516;-73
2023/03/02 07:59:54;;;;;;;13.60;7.10;;;;;;;4.79;75.28;95925.45;106663;1275;24548;-71
2023/03/02 08:02:24;;;;;;;20.90;14.80;;;;;;;4.99;75.11;95925.27;106549;1275;24257;-69
2023/03/02 08:04:53;;;;;;;25.00;17.90;;;;;;;5.19;74.05;95920.73;106846;1275;25360;-73
2023/03/02 08:07:21;;;;;;;19.20;11.40;;;;;;;5.35;73.90;95914.38;106955;1275;22845;-73
2023/03/02 08:09:49;;;;;;;18.70;10.50;;;;;;;5.50;72.91;95912.54;106462;1275;25392;-70
2023/03/02 08:12:17;;;;;;;27.90;19.10;;;;;;;5.63;72.51;95910.19;106698;1275;24362;-72
2023/03/02 08:14:46;;;;;;;17.90;10.70;;;;;;;5.80;72.12;95909.23;106582;1275;22546;-74
2023/03/02 08:17:14;;;;;;;15.70;10.20;;;;;;;5.99;71.74;95907.60;106751;1275;22516;-72
2023/03/02 08:19:43;;;;;;;63.60;48.20;;;;;;;6.17;71.11;95907.13;106616;1266;22649;-77
2023/03/02 08:22:11;;;;;;;20.40;14.00;;;;;;;6.32;69.19;95903.87;106652;1275;24250;-71
2023/03/02 08:24:40;;;;;;;12.40;9.40;;;;;;;6.47;68.93;95905.84;106542;1275;25360;-74
2023/03/02 08:27:13;;;;;;;12.50;7.70;;;;;;;6.61;69.24;95907.96;107364;1275;25315;-71
2023/03/02 08:29:41;;;;;;;11.00;6.50;;;;;;;6.76;69.07;95909.73;106710;1275;25371;-74
2023/03/02 08:32:10;;;;;;;14.10;10.50;;;;;;;6.97;68.89;95912.19;106536;1272;24022;-68
2023/03/02 08:34:38;;;;;;;28.20;16.70;;;;;;;7.10;68.07;95906.44;106342;1275;22576;-72
2023/03/02 08:37:06;;;;;;;15.60;9.90;;;;;;;7.27;67.85;95908.00;106406;1264;22506;-70
2023/03/02 08:39:34;;;;;;;16.00;6.70;;;;;;;7.47;67.38;95905.88;106595;1272;25268;-76
2023/03/02 08:42:02;;;;;;;15.70;7.10;;;;;;;7.54;65.20;95906.21;106794;1266;25456;-70
2023/03/02 08:44:30;;;;;;;9.50;6.20;;;;;;;7.57;65.31;95906.38;106616;1275;25264;-68
2023/03/02 08:46:59;;;;;;;10.50;6.70;;;;;;;7.70;65.34;95904.42;106679;1275;22528;-72
2023/03/02 08:49:27;;;;;;;13.30;7.10;;;;;;;7.87;65.64;95904.04;107044;1275;22527;-70
2023/03/02 08:51:58;;;;;;;12.50;7.00;;;;;;;7.99;63.87;95898.39;107024;1275;22531;-73
2023/03/02 08:54:26;;;;;;;16.50;12.20;;;;;;;8.11;63.37;95900.09;106925;1267;22615;-74
2023/03/02 08:56:55;;;;;;;32.00;28.80;;;;;;;8.12;63.37;95902.17;106722;1275;22530;-70
2023/03/02 08:59:23;;;;;;;38.90;27.90;;;;;;;8.20;63.14;95899.70;106631;1275;22537;-72
2023/03/02 09:01:52;;;;;;;31.60;20.40;;;;;;;8.34;62.82;95898.94;106727;1269;22514;-73
2023/03/02 09:04:20;;;;;;;24.80;18.10;;;;;;;8.50;63.54;95900.45;106608;1276;22526;-73
2023/03/02 09:06:48;;;;;;;21.80;14.30;;;;;;;8.71;63.44;95899.98;106747;1275;22735;-74
2023/03/02 09:09:17;;;;;;;16.90;8.60;;;;;;;8.91;63.21;95893.54;106550;1270;22517;-72
2023/03/02 09:11:45;;;;;;;58.70;37.70;;;;;;;8.98;61.05;95892.95;106571;1276;22532;-69
2023/03/02 09:14:14;;;;;;;14.20;9.20;;;;;;;8.97;60.65;95891.02;106741;1275;22781;-72
2023/03/02 09:16:44;;;;;;;40.00;30.00;;;;;;;9.02;61.23;95892.04;106661;1276;22635;-72
2023/03/02 09:19:13;;;;;;;25.20;19.50;;;;;;;9.06;60.27;95891.66;106770;1272;23947;-73
2023/03/02 09:21:41;;;;;;;15.80;12.80;;;;;;;9.12;60.44;95891.78;106901;1272;25194;-69
2023/03/02 09:24:10;;;;;;;19.00;14.00;;;;;;;9.28;60.37;95893.05;106462;1275;22623;-69
2023/03/02 09:26:39;;;;;;;23.00;18.70;;;;;;;9.41;59.61;95887.14;106683;1275;22649;-71
2023/03/02 09:29:07;;;;;;;8.20;5.20;;;;;;;9.53;59.38;95883.17;106499;1275;22526;-71
2023/03/02 09:31:36;;;;;;;10.60;5.30;;;;;;;9.59;59.21;95882.58;106611;1275;22545;-71
2023/03/02 09:34:05;;;;;;;11.20;5.10;;;;;;;9.70;59.07;95880.71;106538;1273;22958;-72
2023/03/02 09:36:33;;;;;;;17.90;13.30;;;;;;;9.84;58.63;95880.73;106395;1269;22628;-69
2023/03/02 09:39:08;;;;;;;11.90;7.50;;;;;;;9.99;59.05;95878.80;106520;1269;24321;-68
2023/03/02 09:41:48;;;;;;;10.80;5.80;;;;;;;10.12;57.39;95875.31;106562;1276;22782;-69
2023/03/02 09:44:43;;;;;;;12.40;6.60;;;;;;;10.24;56.93;95876.39;106928;1276;22521;-73
2023/03/02 09:47:35;;;;;;;8.90;6.60;;;;;;;10.34;56.92;95871.02;106493;1276;22514;-71
2023/03/02 09:50:24;;;;;;;12.30;5.30;;;;;;;10.43;56.35;95869.65;108080;1276;24194;-73
2023/03/02 09:53:26;;;;;;;13.60;7.50;;;;;;;10.62;57.19;95865.18;106490;1276;22525;-69
2023/03/02 09:56:01;;;;;;;8.50;6.00;;;;;;;10.82;56.41;95861.54;106525;1276;25297;-69
2023/03/02 09:58:36;;;;;;;9.50;4.90;;;;;;;11.04;56.25;95864.71;107536;1276;22543;-67
2023/03/02 10:01:14;;;;;;;7.70;5.40;;;;;;;11.28;55.75;95860.45;106706;1276;22555;-66
2023/03/02 10:03:51;;;;;;;11.00;6.00;;;;;;;11.36;54.10;95862.59;106704;1276;22657;-67
2023/03/02 10:06:19;;;;;;;10.10;5.50;;;;;;;11.42;54.51;95858.96;108729;1276;22457;-67
2023/03/02 10:08:49;;;;;;;10.00;5.30;;;;;;;11.49;53.68;95859.90;106583;1273;25496;-68
2023/03/02 10:11:31;;;;;;;12.80;5.40;;;;;;;11.50;52.92;95861.28;106633;1276;22626;-67
2023/03/02 10:14:07;;;;;;;11.30;6.30;;;;;;;11.53;53.14;95858.60;106611;1276;24202;-68
2023/03/02 10:16:45;;;;;;;9.80;4.80;;;;;;;11.52;52.15;95855.10;106603;1276;22510;-68
2023/03/02 10:19:28;;;;;;;9.90;4.60;;;;;;;11.22;52.19;95853.69;106494;1276;22517;-67
2023/03/02 10:21:56;;;;;;;10.10;5.70;;;;;;;11.22;52.94;95855.26;106515;1276;25315;-67
2023/03/02 10:24:33;;;;;;;8.20;4.50;;;;;;;11.29;53.01;95853.56;106369;1276;22818;-67
2023/03/02 10:27:25;;;;;;;15.30;7.40;;;;;;;11.35;52.72;95850.47;106485;1276;23884;-66
2023/03/02 10:30:29;;;;;;;8.60;4.90;;;;;;;11.20;52.27;95852.50;106625;1276;22528;-68
2023/03/02 10:33:20;;;;;;;8.50;5.70;;;;;;;11.23;53.11;95847.69;106493;1276;22746;-67
2023/03/02 10:35:50;;;;;;;10.00;5.40;;;;;;;11.39;52.93;95848.98;106572;1276;25390;-67
2023/03/02 10:38:24;;;;;;;9.40;7.20;;;;;;;11.50;52.30;95843.68;106563;1276;22528;-68
2023/03/02 10:41:05;;;;;;;8.70;5.50;;;;;;;11.66;51.59;95842.85;106587;1276;25455;-68
2023/03/02 10:43:50;;;;;;;10.10;5.50;;;;;;;11.61;51.12;95840.48;106612;1276;22643;-69
2023/03/02 10:46:18;;;;;;;10.10;4.70;;;;;;;11.70;50.98;95841.90;106644;1276;22530;-68
2023/03/02 10:48:58;;;;;;;8.20;5.10;;;;;;;11.76;50.63;95835.09;106602;1276;22530;-68
2023/03/02 10:51:34;;;;;;;10.00;4.70;;;;;;;12.05;50.74;95832.44;106622;1276;22514;-68
2023/03/02 10:54:08;;;;;;;9.20;4.90;;;;;;;12.59;49.47;95832.33;106631;1276;22541;-68
2023/03/02 10:56:37;;;;;;;8.20;5.10;;;;;;;12.89;48.87;95829.88;106606;1276;26731;-68
2023/03/02 10:59:24;;;;;;;8.10;5.70;;;;;;;13.32;47.89;95820.90;106606;1276;24230;-69
2023/03/02 11:02:11;;;;;;;10.10;5.00;;;;;;;13.53;46.59;95820.85;106631;1275;22521;-69
2023/03/02 11:04:39;;;;;;;9.40;4.60;;;;;;;13.96;46.46;95815.45;106716;1275;22518;-66
2023/03/02 11:07:16;;;;;;;11.70;4.70;;;;;;;14.29;44.79;95812.17;106707;1275;22515;-67
2023/03/02 11:10:19;;;;;;;7.10;4.90;;;;;;;14.56;43.81;95809.11;106884;1275;22532;-67
2023/03/02 11:12:50;;;;;;;9.40;4.80;;;;;;;14.96;44.06;95808.73;106385;1275;22513;-66
2023/03/02 11:15:33;;;;;;;9.90;4.90;;;;;;;15.45;43.38;95807.63;107043;1275;25323;-67
2023/03/02 11:18:15;;;;;;;10.50;4.90;;;;;;;15.87;41.56;95809.39;107040;1275;25337;-68
2023/03/02 11:20:49;;;;;;;10.60;4.90;;;;;;;15.90;40.74;95808.77;107003;1275;25590;-68
2023/03/02 11:23:23;;;;;;;10.70;4.60;;;;;;;15.99;40.96;95810.39;106840;1275;25355;-69
2023/03/02 11:25:56;;;;;;;10.20;5.80;;;;;;;16.11;40.41;95809.58;106965;1275;22593;-67
2023/03/02 11:28:40;;;;;;;9.60;5.30;;;;;;;16.31;40.21;95803.69;106724;1275;25787;-67
2023/03/02 11:31:19;;;;;;;9.40;4.60;;;;;;;16.63;39.36;95804.05;106768;1275;22562;-68
2023/03/02 11:34:06;;;;;;;10.90;4.70;;;;;;;16.73;38.80;95804.21;106923;1275;25320;-68
2023/03/02 11:37:01;;;;;;;13.20;4.70;;;;;;;16.66;38.59;95806.42;106570;1275;25615;-67
2023/03/02 11:39:46;;;;;;;8.70;5.00;;;;;;;16.80;38.64;95808.21;106729;1275;22529;-67
2023/03/02 11:42:31;;;;;;;7.40;5.10;;;;;;;17.15;38.31;95803.45;106896;1275;23014;-68